createdAt,value
2023-04-16T00:00:21.520Z,82.07
2023-04-16T00:01:26.802Z,81.32
2023-04-16T00:02:33.392Z,78.07
2023-04-16T00:03:38.988Z,80.72
2023-04-16T00:04:45.844Z,83.32
2023-04-16T00:05:51.147Z,79.97
2023-04-16T00:06:58.045Z,81.25
2023-04-16T00:08:03.447Z,79.10
2023-04-16T00:09:11.818Z,79.50
2023-04-16T00:10:17.509Z,76.72
2023-04-16T00:11:24.113Z,80.43
2023-04-16T00:12:29.435Z,78.90
2023-04-16T00:13:36.026Z,81.10
2023-04-16T00:14:41.315Z,81.07
2023-04-16T00:15:48.587Z,78.75
2023-04-16T00:16:53.918Z,80.53
2023-04-16T00:18:00.549Z,78.45
2023-04-16T00:19:05.875Z,83.65
2023-04-16T00:20:13.370Z,82.47
2023-04-16T00:21:18.774Z,77.68
2023-04-16T00:22:25.322Z,76.13
2023-04-16T00:23:30.600Z,86.63
2023-04-16T00:24:38.899Z,78.23
2023-04-16T00:25:44.693Z,80.85
2023-04-16T00:26:51.241Z,78.78
2023-04-16T00:27:56.496Z,82.78
2023-04-16T00:29:03.012Z,79.82
2023-04-16T00:30:09.343Z,78.38
2023-04-16T00:31:15.961Z,81.35
2023-04-16T00:32:21.302Z,77.18
2023-04-16T00:33:28.254Z,77.10
2023-04-16T00:34:33.468Z,78.22
2023-04-16T00:35:42.742Z,78.83
2023-04-16T00:36:48.003Z,77.82
2023-04-16T00:37:54.617Z,76.40
2023-04-16T00:39:00.048Z,80.15
2023-04-16T00:40:08.868Z,73.47
2023-04-16T00:41:14.176Z,78.93
2023-04-16T00:42:20.728Z,72.13
2023-04-16T00:43:27.227Z,73.20
2023-04-16T00:44:36.415Z,73.53
2023-04-16T00:45:41.699Z,72.55
2023-04-16T00:46:48.564Z,77.57
2023-04-16T00:47:53.888Z,75.85
2023-04-16T00:49:00.783Z,74.35
2023-04-16T00:50:06.828Z,74.07
2023-04-16T00:51:13.462Z,73.03
2023-04-16T00:52:18.798Z,73.88
2023-04-16T00:53:25.448Z,72.72
2023-04-16T00:54:31.102Z,69.85
2023-04-16T00:55:39.373Z,69.35
2023-04-16T00:56:44.572Z,77.28
2023-04-16T00:57:51.107Z,70.73
2023-04-16T00:58:58.091Z,72.95
2023-04-16T01:00:05.067Z,70.82
2023-04-16T01:01:10.434Z,72.70
2023-04-16T01:02:17.333Z,71.20
2023-04-16T01:03:22.845Z,70.63
2023-04-16T01:04:31.343Z,72.10
2023-04-16T01:05:36.627Z,67.60
2023-04-16T01:06:43.108Z,68.82
2023-04-16T01:07:48.303Z,70.93
2023-04-16T01:08:54.868Z,71.37
2023-04-16T01:10:00.205Z,67.15
2023-04-16T01:11:08.626Z,68.97
2023-04-16T01:12:13.847Z,66.47
2023-04-16T01:13:20.369Z,66.00
2023-04-16T01:14:25.622Z,68.07
2023-04-16T01:15:32.278Z,68.95
2023-04-16T01:16:38.101Z,73.93
2023-04-16T01:17:44.676Z,70.70
2023-04-16T01:18:52.152Z,72.00
2023-04-16T01:19:58.802Z,70.07
